Time;durP1;ratioP1;P1;durP2;ratioP2;P2;SDS_P1;SDS_P2;PMS_P1;PMS_P2;Temp;Humidity;BMP_temperature;BMP_pressure;BME280_temperature;BME280_humidity;BME280_pressure;Samples;Min_cycle;Max_cycle;Signal;HPM_P1;HPM_P2
2023/07/27 00:00:30;;;;;;;;;;;24.60;48.60;;;;;;3062573;19;5359;-91
2023/07/27 00:01:31;;;;;;;;;;;24.60;48.60;;;;;;3062203;19;5285;-92
2023/07/27 00:02:32;;;;;;;;;;;24.60;48.60;;;;;;3061268;19;4619;-91
2023/07/27 00:03:33;;;;;;;;;;;24.60;48.60;;;;;;3061628;19;5178;-91
2023/07/27 00:04:33;;;;;;;;;;;24.60;48.60;;;;;;3061978;19;5138;-90
2023/07/27 00:05:34;;;;;;;;;;;24.60;48.60;;;;;;3061468;19;5685;-92
2023/07/27 00:06:35;;;;;;;;;;;24.60;48.60;;;;;;3061371;19;5244;-90
2023/07/27 00:07:35;;;;;;;;;;;24.60;48.60;;;;;;3060932;19;4754;-91
2023/07/27 00:08:36;;;;;;;;;;;24.60;48.60;;;;;;3061560;19;4677;-91
2023/07/27 00:09:37;;;;;;;;;;;24.60;48.60;;;;;;3061370;19;4596;-91
2023/07/27 00:10:37;;;;;;;;;;;24.60;48.60;;;;;;3061708;19;4587;-91
2023/07/27 00:11:38;;;;;;;;;;;24.60;48.70;;;;;;3061281;19;5043;-91
2023/07/27 00:12:39;;;;;;;;;;;24.50;48.60;;;;;;3060847;19;5123;-91
2023/07/27 00:13:40;;;;;;;;;;;24.60;49.00;;;;;;3061209;19;4578;-91
2023/07/27 00:14:41;;;;;;;;;;;24.60;49.00;;;;;;3061033;19;5551;-90
2023/07/27 00:15:41;;;;;;;;;;;24.60;48.70;;;;;;3061362;19;4554;-92
2023/07/27 00:16:42;;;;;;;;;;;24.50;48.70;;;;;;3061010;19;5131;-90
2023/07/27 00:17:42;;;;;;;;;;;24.50;48.60;;;;;;3061429;19;5111;-91
2023/07/27 00:18:43;;;;;;;;;;;24.50;48.60;;;;;;3061250;19;4622;-91
2023/07/27 00:19:44;;;;;;;;;;;24.50;48.70;;;;;;3060980;19;4676;-90
2023/07/27 00:20:44;;;;;;;;;;;24.50;48.70;;;;;;3060854;19;4608;-90
2023/07/27 00:21:46;;;;;;;;;;;24.50;48.60;;;;;;3061301;19;5036;-92
2023/07/27 00:22:47;;;;;;;;;;;24.50;48.60;;;;;;3060747;19;5080;-91
2023/07/27 00:23:47;;;;;;;;;;;24.50;48.60;;;;;;3061213;19;5134;-89
2023/07/27 00:24:48;;;;;;;;;;;24.50;48.70;;;;;;3061740;19;5154;-91
2023/07/27 00:25:49;;;;;;;;;;;24.50;48.70;;;;;;3061150;19;5089;-90
2023/07/27 00:26:52;;;;;;;;;;;24.50;48.70;;;;;;3061779;19;5131;-90
2023/07/27 00:27:52;;;;;;;;;;;24.50;48.90;;;;;;3061443;19;5110;-90
2023/07/27 00:28:53;;;;;;;;;;;24.50;48.70;;;;;;3061735;19;6089;-92
2023/07/27 00:29:54;;;;;;;;;;;24.50;48.70;;;;;;3061191;19;4961;-91
2023/07/27 00:30:54;;;;;;;;;;;24.50;48.80;;;;;;3061659;19;4633;-90
2023/07/27 00:31:55;;;;;;;;;;;24.50;48.80;;;;;;3061131;19;5095;-90
2023/07/27 00:32:57;;;;;;;;;;;24.50;48.70;;;;;;3060406;19;5048;-90
2023/07/27 00:33:59;;;;;;;;;;;24.50;48.70;;;;;;3061307;19;5035;-91
2023/07/27 00:35:00;;;;;;;;;;;24.50;48.70;;;;;;3060680;19;4660;-91
2023/07/27 00:36:02;;;;;;;;;;;24.40;48.60;;;;;;3060630;19;5166;-91
2023/07/27 00:37:03;;;;;;;;;;;24.50;48.80;;;;;;3061126;19;5121;-91
2023/07/27 00:38:03;;;;;;;;;;;24.40;48.70;;;;;;3060217;19;5031;-92
2023/07/27 00:39:05;;;;;;;;;;;24.40;48.60;;;;;;3060811;19;5007;-91
2023/07/27 00:40:06;;;;;;;;;;;24.40;48.70;;;;;;3059926;19;4571;-91
2023/07/27 00:41:09;;;;;;;;;;;24.40;48.80;;;;;;3060120;19;5113;-91
2023/07/27 00:42:09;;;;;;;;;;;24.40;48.80;;;;;;3060774;19;4611;-90
2023/07/27 00:43:10;;;;;;;;;;;24.40;48.80;;;;;;3060244;19;5112;-92
2023/07/27 00:44:11;;;;;;;;;;;24.40;48.80;;;;;;3061026;19;986;-92
2023/07/27 00:45:11;;;;;;;;;;;24.40;48.70;;;;;;3059432;19;5020;-89
2023/07/27 00:46:12;;;;;;;;;;;24.40;48.80;;;;;;3060142;19;5016;-90
2023/07/27 00:47:13;;;;;;;;;;;24.40;49.60;;;;;;3060019;19;5323;-92
2023/07/27 00:48:13;;;;;;;;;;;24.40;48.70;;;;;;3060118;19;5118;-92
2023/07/27 00:49:14;;;;;;;;;;;24.40;48.80;;;;;;3060346;19;4664;-90
2023/07/27 00:50:14;;;;;;;;;;;24.40;48.80;;;;;;3059655;19;5243;-90
2023/07/27 00:51:15;;;;;;;;;;;24.40;48.70;;;;;;3059945;19;5176;-92
2023/07/27 00:52:16;;;;;;;;;;;24.40;48.80;;;;;;3060383;19;5002;-92
2023/07/27 00:53:17;;;;;;;;;;;24.40;48.90;;;;;;3059727;19;6080;-92
2023/07/27 00:54:17;;;;;;;;;;;24.40;48.70;;;;;;3059868;19;5074;-90
2023/07/27 00:55:18;;;;;;;;;;;24.40;49.40;;;;;;3059515;19;4611;-90
2023/07/27 00:56:19;;;;;;;;;;;24.40;48.80;;;;;;3059957;19;4643;-89
2023/07/27 00:57:21;;;;;;;;;;;24.30;48.80;;;;;;3060609;19;5153;-91
2023/07/27 00:58:22;;;;;;;;;;;24.40;48.90;;;;;;3060236;19;5152;-90
2023/07/27 00:59:22;;;;;;;;;;;24.40;48.80;;;;;;3059825;19;5421;-92
2023/07/27 01:00:23;;;;;;;;;;;24.40;48.90;;;;;;3060072;19;4701;-90
2023/07/27 01:01:24;;;;;;;;;;;24.40;48.80;;;;;;3060310;19;4953;-90
2023/07/27 01:02:25;;;;;;;;;;;24.30;48.80;;;;;;3059961;19;5223;-91
2023/07/27 12:49:58;;;;;;;;;;;24.30;48.80;;;;;;3046369;19;4853;-25
2023/07/27 12:50:58;;;;;;;;;;;25.00;56.30;;;;;;3051836;19;4745;-25
2023/07/27 12:51:59;;;;;;;;;;;25.00;56.60;;;;;;3053109;19;4816;-22
2023/07/27 12:53:00;;;;;;;;;;;25.00;56.50;;;;;;3054537;19;4626;-27
2023/07/27 12:54:04;;;;;;;;;;;25.00;56.40;;;;;;3054982;19;4714;-25
2023/07/27 12:55:05;;;;;;;;;;;25.00;56.40;;;;;;3054773;19;4621;-23
2023/07/27 12:56:06;;;;;;;;;;;25.00;56.30;;;;;;3053911;19;4709;-23
2023/07/27 12:57:07;;;;;;;;;;;25.10;56.40;;;;;;3054573;19;4795;-24
2023/07/27 12:58:07;;;;;;;;;;;25.10;56.20;;;;;;3053797;19;4774;-22
2023/07/27 12:59:08;;;;;;;;;;;25.10;56.50;;;;;;3054429;19;4838;-26
2023/07/27 13:00:11;;;;;;;;;;;25.10;56.30;;;;;;3053860;19;4780;-22
2023/07/27 13:01:11;;;;;;;;;;;25.00;56.40;;;;;;3053785;19;4827;-25
2023/07/27 13:02:12;;;;;;;;;;;25.10;56.20;;;;;;3054899;19;976;-22
2023/07/27 13:03:13;;;;;;;;;;;25.00;56.20;;;;;;3053473;19;4771;-26
2023/07/27 13:04:14;;;;;;;;;;;25.00;56.20;;;;;;3054420;19;4656;-24
2023/07/27 13:05:16;;;;;;;;;;;24.80;56.40;;;;;;3054371;19;4815;-25
2023/07/27 13:06:16;;;;;;;;;;;25.00;56.50;;;;;;3054812;19;4676;-24
2023/07/27 13:07:17;;;;;;;;;;;25.00;57.10;;;;;;3055291;19;4867;-27
2023/07/27 13:08:18;;;;;;;;;;;25.00;56.70;;;;;;3054953;19;4652;-24
2023/07/27 13:09:19;;;;;;;;;;;25.00;56.80;;;;;;3054509;19;4701;-22
2023/07/27 13:10:20;;;;;;;;;;;25.00;56.80;;;;;;3055201;19;4837;-24
2023/07/27 13:11:21;;;;;;;;;;;25.00;56.70;;;;;;3054346;19;4808;-24
2023/07/27 13:12:21;;;;;;;;;;;25.00;56.90;;;;;;3054554;19;4929;-22
2023/07/27 13:13:22;;;;;;;;;;;25.00;56.80;;;;;;3054657;19;4934;-24
2023/07/27 13:14:23;;;;;;;;;;;25.00;56.60;;;;;;3054466;19;4871;-24
2023/07/27 13:15:23;;;;;;;;;;;25.00;56.80;;;;;;3054880;19;4776;-26
2023/07/27 13:16:24;;;;;;;;;;;25.00;56.60;;;;;;3054527;19;4953;-24
2023/07/27 13:17:25;;;;;;;;;;;25.00;56.60;;;;;;3053884;19;4730;-25
2023/07/27 13:18:25;;;;;;;;;;;25.00;56.60;;;;;;3054113;19;4786;-25
2023/07/27 13:19:26;;;;;;;;;;;25.00;56.70;;;;;;3053092;19;4820;-25
2023/07/27 13:20:26;;;;;;;;;;;25.00;56.50;;;;;;3054592;19;4818;-25
2023/07/27 13:21:27;;;;;;;;;;;25.00;56.60;;;;;;3053819;19;4660;-23
2023/07/27 13:22:28;;;;;;;;;;;25.00;56.60;;;;;;3054049;19;4742;-23
2023/07/27 13:23:28;;;;;;;;;;;25.00;56.40;;;;;;3054263;19;4809;-23
2023/07/27 13:24:29;;;;;;;;;;;25.00;56.30;;;;;;3053788;19;4908;-25
2023/07/27 13:25:30;;;;;;;;;;;25.00;56.80;;;;;;3054582;19;4837;-23
2023/07/27 13:26:31;;;;;;;;;;;25.00;57.10;;;;;;3054379;19;4874;-25
2023/07/27 13:27:31;;;;;;;;;;;25.00;56.80;;;;;;3053482;19;4791;-24
2023/07/27 13:28:32;;;;;;;;;;;24.90;56.70;;;;;;3054530;19;4836;-24
2023/07/27 13:29:34;;;;;;;;;;;25.00;56.90;;;;;;3054499;19;4929;-24
2023/07/27 13:30:34;;;;;;;;;;;24.90;56.80;;;;;;3054466;19;4733;-24
2023/07/27 13:31:35;;;;;;;;;;;25.00;56.80;;;;;;3054724;19;4819;-23
2023/07/27 13:32:36;;;;;;;;;;;25.00;57.00;;;;;;3053535;19;4902;-23
2023/07/27 13:33:36;;;;;;;;;;;24.90;56.80;;;;;;3054471;19;4761;-24
2023/07/27 13:34:37;;;;;;;;;;;25.00;56.70;;;;;;3054428;19;4820;-23
2023/07/27 13:35:38;;;;;;;;;;;24.90;56.60;;;;;;3053086;19;4642;-23
2023/07/27 13:36:39;;;;;;;;;;;24.90;57.00;;;;;;3054256;19;4635;-23
2023/07/27 13:37:40;;;;;;;;;;;24.90;57.00;;;;;;3054206;19;4857;-26
2023/07/27 13:38:40;;;;;;;;;;;24.90;56.70;;;;;;3053785;19;4705;-28
2023/07/27 13:39:41;;;;;;;;;;;24.90;56.90;;;;;;3054412;19;4816;-23
2023/07/27 13:40:42;;;;;;;;;;;24.90;57.00;;;;;;3054392;19;4882;-23
2023/07/27 13:41:42;;;;;;;;;;;24.90;57.00;;;;;;3054769;19;4970;-25
2023/07/27 13:42:43;;;;;;;;;;;24.90;57.50;;;;;;3054848;19;4800;-23
2023/07/27 13:43:44;;;;;;;;;;;24.90;57.40;;;;;;3053888;19;4832;-21
2023/07/27 13:44:45;;;;;;;;;;;24.90;56.90;;;;;;3054343;19;4704;-25
2023/07/27 13:45:45;;;;;;;;;;;24.90;57.40;;;;;;3053864;19;4783;-27
2023/07/27 13:46:46;;;;;;;;;;;24.90;57.10;;;;;;3054389;19;4691;-25
2023/07/27 13:47:47;;;;;;;;;;;24.90;57.90;;;;;;3054496;19;4780;-22
2023/07/27 13:48:47;;;;;;;;;;;24.90;57.30;;;;;;3053374;19;4830;-26
2023/07/27 13:49:48;;;;;;;;;;;24.90;57.40;;;;;;3053424;19;4721;-24
2023/07/27 13:50:49;;;;;;;;;;;24.90;57.60;;;;;;3054250;19;4833;-23
2023/07/27 13:51:50;;;;;;;;;;;24.90;57.30;;;;;;3053249;19;4861;-23
2023/07/27 13:52:51;;;;;;;;;;;24.90;57.40;;;;;;3053774;19;4797;-24
2023/07/27 13:53:51;;;;;;;;;;;24.90;57.30;;;;;;3053225;19;4803;-27
2023/07/27 13:54:52;;;;;;;;;;;24.90;57.60;;;;;;3054179;19;4790;-24
2023/07/27 13:55:53;;;;;;;;;;;24.90;57.40;;;;;;3054294;19;4790;-27
2023/07/27 13:56:53;;;;;;;;;;;24.90;57.40;;;;;;3053268;19;4918;-26
2023/07/27 13:57:54;;;;;;;;;;;24.90;57.30;;;;;;3053956;19;4729;-22
2023/07/27 13:58:55;;;;;;;;;;;24.90;57.60;;;;;;3053817;19;4657;-25
2023/07/27 13:59:55;;;;;;;;;;;25.00;57.40;;;;;;3053280;19;4800;-24
2023/07/27 14:00:56;;;;;;;;;;;25.00;57.30;;;;;;3054145;19;4768;-23
2023/07/27 14:01:58;;;;;;;;;;;25.10;57.40;;;;;;3053311;19;4877;-25
2023/07/27 14:02:59;;;;;;;;;;;25.10;57.30;;;;;;3052256;19;4797;-22
2023/07/27 14:03:59;;;;;;;;;;;25.10;57.10;;;;;;3053743;19;4743;-25
2023/07/27 14:05:00;;;;;;;;;;;25.10;57.50;;;;;;3053535;19;4855;-23
2023/07/27 14:06:00;;;;;;;;;;;25.10;57.00;;;;;;3054355;19;4798;-24
2023/07/27 14:07:01;;;;;;;;;;;25.10;56.90;;;;;;3053949;19;4777;-22
2023/07/27 14:08:02;;;;;;;;;;;25.20;57.60;;;;;;3053037;19;4790;-24
2023/07/27 14:09:03;;;;;;;;;;;25.10;57.40;;;;;;3053419;19;4759;-27
2023/07/27 14:10:05;;;;;;;;;;;25.10;57.50;;;;;;3052795;19;4695;-24
2023/07/27 14:11:06;;;;;;;;;;;25.10;57.10;;;;;;3053530;19;4535;-25
2023/07/27 14:12:07;;;;;;;;;;;25.10;57.80;;;;;;3052321;19;4805;-26
2023/07/27 14:13:08;;;;;;;;;;;25.10;57.80;;;;;;3051571;19;4780;-23
2023/07/27 14:14:08;;;;;;;;;;;25.10;57.20;;;;;;3052733;19;4845;-27
2023/07/27 14:15:09;;;;;;;;;;;25.10;57.40;;;;;;3052769;19;5002;-25
2023/07/27 14:16:10;;;;;;;;;;;25.10;56.90;;;;;;3053184;19;5135;-25
2023/07/27 14:17:11;;;;;;;;;;;25.10;57.10;;;;;;3053689;19;1072;-24
2023/07/27 14:18:11;;;;;;;;;;;25.10;57.40;;;;;;3052217;19;4786;-25
2023/07/27 14:19:12;;;;;;;;;;;25.10;57.20;;;;;;3052459;19;4820;-24
2023/07/27 14:20:12;;;;;;;;;;;25.10;57.70;;;;;;3053026;19;4852;-22
2023/07/27 14:21:13;;;;;;;;;;;25.10;58.10;;;;;;3052460;19;4724;-25
2023/07/27 14:22:14;;;;;;;;;;;25.10;57.50;;;;;;3053037;19;4831;-25
2023/07/27 14:23:14;;;;;;;;;;;25.10;57.90;;;;;;3052533;19;4703;-22
2023/07/27 14:24:15;;;;;;;;;;;25.10;57.20;;;;;;3053037;19;4832;-23
2023/07/27 14:25:16;;;;;;;;;;;25.10;57.20;;;;;;3053248;19;4798;-30
2023/07/27 14:26:16;;;;;;;;;;;25.10;57.20;;;;;;3052829;19;4750;-32
2023/07/27 14:27:17;;;;;;;;;;;25.00;57.20;;;;;;3052368;19;4834;-30
2023/07/27 14:28:17;;;;;;;;;;;25.10;57.90;;;;;;3052559;19;4955;-33
2023/07/27 14:29:18;;;;;;;;;;;25.10;57.30;;;;;;3053311;19;4662;-34
2023/07/27 14:30:19;;;;;;;;;;;25.10;58.10;;;;;;3053600;19;4897;-29
2023/07/27 14:31:19;;;;;;;;;;;25.10;57.40;;;;;;3052729;19;5229;-33
2023/07/27 14:32:20;;;;;;;;;;;25.10;57.30;;;;;;3053154;19;4896;-32
2023/07/27 14:33:21;;;;;;;;;;;25.10;57.10;;;;;;3052700;19;4825;-30
2023/07/27 14:34:21;;;;;;;;;;;25.10;58.10;;;;;;3052950;19;4676;-30
2023/07/27 14:35:22;;;;;;;;;;;25.10;57.30;;;;;;3053356;19;4652;-31
2023/07/27 14:36:23;;;;;;;;;;;25.10;57.40;;;;;;3053514;19;4944;-30
2023/07/27 14:37:24;;;;;;;;;;;25.10;57.30;;;;;;3052921;19;4736;-35
2023/07/27 14:38:24;;;;;;;;;;;25.10;57.80;;;;;;3053628;19;4805;-29
2023/07/27 14:39:25;;;;;;;;;;;25.10;58.30;;;;;;3052782;19;4801;-34
2023/07/27 14:40:25;;;;;;;;;;;25.10;58.00;;;;;;3052108;19;4845;-32
2023/07/27 14:41:26;;;;;;;;;;;25.10;57.60;;;;;;3051999;19;4829;-32
2023/07/27 14:42:27;;;;;;;;;;;25.10;57.90;;;;;;3052806;19;4655;-33
2023/07/27 14:43:27;;;;;;;;;;;25.10;57.70;;;;;;3052690;19;4670;-32
2023/07/27 14:44:28;;;;;;;;;;;25.10;57.70;;;;;;3052511;19;5216;-29
2023/07/27 14:45:29;;;;;;;;;;;25.10;57.80;;;;;;3053403;19;5244;-29
2023/07/27 14:46:32;;;;;;;;;;;25.00;57.50;;;;;;3053060;19;5259;-34
2023/07/27 14:47:33;;;;;;;;;;;25.00;58.30;;;;;;3052407;19;4964;-31
2023/07/27 14:48:33;;;;;;;;;;;25.00;57.80;;;;;;3053114;19;4705;-32
2023/07/27 14:49:34;;;;;;;;;;;25.00;57.60;;;;;;3052689;19;4733;-34
2023/07/27 14:50:35;;;;;;;;;;;25.00;57.60;;;;;;3052840;19;4647;-32
2023/07/27 14:51:35;;;;;;;;;;;25.00;57.70;;;;;;3053149;19;4684;-30
2023/07/27 14:52:36;;;;;;;;;;;25.00;57.60;;;;;;3052346;19;4914;-32
2023/07/27 14:53:37;;;;;;;;;;;25.00;58.00;;;;;;3052885;19;4618;-31
2023/07/27 14:54:37;;;;;;;;;;;25.00;57.90;;;;;;3053297;19;4844;-32
2023/07/27 14:55:38;;;;;;;;;;;25.00;57.90;;;;;;3053025;19;4805;-22
2023/07/27 14:56:39;;;;;;;;;;;25.00;57.90;;;;;;3053573;19;4799;-26
2023/07/27 14:57:39;;;;;;;;;;;25.00;57.70;;;;;;3053314;19;4822;-26
2023/07/27 14:58:40;;;;;;;;;;;25.00;57.90;;;;;;3052881;19;4766;-25
2023/07/27 14:59:41;;;;;;;;;;;25.00;57.70;;;;;;3052956;19;4823;-23
2023/07/27 15:00:41;;;;;;;;;;;25.00;57.90;;;;;;3052872;19;4832;-22
2023/07/27 15:01:42;;;;;;;;;;;25.00;57.70;;;;;;3052302;19;4722;-25
2023/07/27 15:02:42;;;;;;;;;;;25.00;57.80;;;;;;3052221;19;4782;-22
2023/07/27 15:03:43;;;;;;;;;;;25.00;57.90;;;;;;3052395;19;4792;-29
2023/07/27 15:04:44;;;;;;;;;;;25.00;58.00;;;;;;3053254;19;4817;-22
2023/07/27 15:05:44;;;;;;;;;;;25.00;58.00;;;;;;3053592;19;4837;-21
2023/07/27 15:06:45;;;;;;;;;;;25.00;57.90;;;;;;3053184;19;4694;-28
2023/07/27 15:07:46;;;;;;;;;;;25.00;57.70;;;;;;3053270;19;4819;-25
2023/07/27 15:08:46;;;;;;;;;;;25.00;58.00;;;;;;3052597;19;4701;-21
2023/07/27 15:09:48;;;;;;;;;;;25.00;57.70;;;;;;3052890;19;4872;-26
2023/07/27 15:10:49;;;;;;;;;;;25.00;58.90;;;;;;3052984;19;4801;-23
2023/07/27 15:11:49;;;;;;;;;;;25.00;58.60;;;;;;3052369;19;4776;-24
2023/07/27 15:12:52;;;;;;;;;;;25.10;58.50;;;;;;3053115;19;4822;-23
2023/07/27 15:13:53;;;;;;;;;;;25.10;58.00;;;;;;3053085;19;4769;-25
2023/07/27 15:14:53;;;;;;;;;;;25.10;57.70;;;;;;3055497;19;4752;-25
2023/07/27 15:15:54;;;;;;;;;;;25.10;58.00;;;;;;3056243;19;4733;-22
2023/07/27 15:16:54;;;;;;;;;;;25.20;58.20;;;;;;3055403;19;4896;-27
2023/07/27 15:17:55;;;;;;;;;;;25.20;57.60;;;;;;3055836;19;4690;-25
2023/07/27 15:18:56;;;;;;;;;;;25.20;58.40;;;;;;3055640;19;4822;-24
2023/07/27 15:19:56;;;;;;;;;;;25.20;58.10;;;;;;3055570;19;4739;-22
2023/07/27 15:20:57;;;;;;;;;;;25.20;57.80;;;;;;3056044;19;4776;-25
2023/07/27 15:21:58;;;;;;;;;;;25.20;57.70;;;;;;3055745;19;4764;-24
2023/07/27 15:22:59;;;;;;;;;;;25.20;57.50;;;;;;3056327;19;4744;-25
2023/07/27 15:24:00;;;;;;;;;;;25.20;57.80;;;;;;3055929;19;4928;-22
2023/07/27 15:25:00;;;;;;;;;;;25.20;58.20;;;;;;3055777;19;4767;-25
2023/07/27 15:26:02;;;;;;;;;;;25.20;57.50;;;;;;3056200;19;4677;-23
2023/07/27 15:27:03;;;;;;;;;;;25.20;57.80;;;;;;3056047;19;4779;-27
2023/07/27 15:28:04;;;;;;;;;;;25.20;57.60;;;;;;3055575;19;4800;-26
2023/07/27 15:29:06;;;;;;;;;;;25.20;58.00;;;;;;3055620;19;4720;-23
2023/07/27 15:30:07;;;;;;;;;;;25.20;57.90;;;;;;3055122;19;4657;-23
2023/07/27 15:31:08;;;;;;;;;;;25.20;57.40;;;;;;3055798;19;4638;-25
2023/07/27 15:32:09;;;;;;;;;;;25.20;57.60;;;;;;3056062;19;1853;-22
2023/07/27 15:33:10;;;;;;;;;;;25.20;58.00;;;;;;3053975;19;4797;-24
2023/07/27 15:34:11;;;;;;;;;;;25.20;57.80;;;;;;3054436;19;4719;-24
2023/07/27 15:35:11;;;;;;;;;;;25.10;57.70;;;;;;3054018;19;4690;-34
2023/07/27 15:36:14;;;;;;;;;;;25.20;58.60;;;;;;3055885;19;4793;-35
2023/07/27 15:37:14;;;;;;;;;;;25.20;57.60;;;;;;3054124;19;5018;-32
2023/07/27 15:38:15;;;;;;;;;;;25.20;58.30;;;;;;3054874;19;4646;-30
2023/07/27 15:39:16;;;;;;;;;;;25.20;57.80;;;;;;3055848;19;5078;-28
2023/07/27 15:40:18;;;;;;;;;;;25.20;57.60;;;;;;3054420;19;4788;-31
2023/07/27 15:41:18;;;;;;;;;;;25.10;57.50;;;;;;3053608;19;4576;-31
2023/07/27 15:42:19;;;;;;;;;;;25.20;57.60;;;;;;3055406;19;4822;-33
2023/07/27 15:43:20;;;;;;;;;;;25.10;58.00;;;;;;3054989;19;4950;-29
2023/07/27 15:44:21;;;;;;;;;;;25.20;58.30;;;;;;3056083;19;4840;-32
2023/07/27 15:45:21;;;;;;;;;;;25.20;57.70;;;;;;3054385;19;4704;-32
2023/07/27 15:46:22;;;;;;;;;;;25.20;57.50;;;;;;3055618;19;4648;-31
2023/07/27 15:47:23;;;;;;;;;;;25.20;57.70;;;;;;3055056;19;4670;-32
2023/07/27 15:48:24;;;;;;;;;;;25.20;57.90;;;;;;3055584;19;4862;-34
2023/07/27 15:49:25;;;;;;;;;;;25.20;57.30;;;;;;3055109;19;5023;-33
2023/07/27 15:50:25;;;;;;;;;;;25.20;57.50;;;;;;3055467;19;5036;-34
2023/07/27 15:51:26;;;;;;;;;;;25.10;57.30;;;;;;3055584;19;4769;-32
2023/07/27 15:52:26;;;;;;;;;;;25.20;57.60;;;;;;3055170;19;4948;-32
2023/07/27 15:53:27;;;;;;;;;;;25.20;57.60;;;;;;3055267;19;4821;-30
2023/07/27 15:54:28;;;;;;;;;;;25.10;57.60;;;;;;3055970;19;4699;-33
2023/07/27 15:55:28;;;;;;;;;;;25.10;57.20;;;;;;3053962;19;5462;-30
2023/07/27 15:56:29;;;;;;;;;;;25.10;57.40;;;;;;3051995;19;4825;-33
2023/07/27 15:57:29;;;;;;;;;;;25.10;57.60;;;;;;3052864;19;4823;-33
2023/07/27 15:58:30;;;;;;;;;;;25.10;57.90;;;;;;3052971;19;4820;-29
2023/07/27 15:59:31;;;;;;;;;;;25.10;57.80;;;;;;3054756;19;4693;-31
2023/07/27 16:00:32;;;;;;;;;;;25.10;57.50;;;;;;3055367;19;4835;-33
2023/07/27 16:01:33;;;;;;;;;;;25.10;57.30;;;;;;3052462;19;4822;-32
2023/07/27 16:02:33;;;;;;;;;;;25.10;57.60;;;;;;3054125;19;4836;-29
2023/07/27 16:03:34;;;;;;;;;;;25.10;57.60;;;;;;3055141;19;4627;-31
2023/07/27 16:04:35;;;;;;;;;;;25.10;57.90;;;;;;3052356;19;4791;-30
2023/07/27 16:05:37;;;;;;;;;;;25.10;57.80;;;;;;3054253;19;4734;-25
2023/07/27 16:06:39;;;;;;;;;;;25.10;57.70;;;;;;3053563;19;4780;-23
2023/07/27 16:07:39;;;;;;;;;;;25.10;57.80;;;;;;3053832;19;4823;-23
2023/07/27 16:08:40;;;;;;;;;;;25.10;57.70;;;;;;3054641;19;4639;-26
2023/07/27 16:09:41;;;;;;;;;;;25.10;57.60;;;;;;3053404;19;4799;-22
2023/07/27 16:10:42;;;;;;;;;;;25.10;57.80;;;;;;3053977;19;4674;-23
2023/07/27 16:11:43;;;;;;;;;;;25.10;58.50;;;;;;3054900;19;4624;-23
2023/07/27 16:12:43;;;;;;;;;;;25.10;57.90;;;;;;3052071;19;4982;-25
2023/07/27 16:13:44;;;;;;;;;;;25.10;57.80;;;;;;3052638;19;4811;-24
2023/07/27 16:14:45;;;;;;;;;;;25.10;57.70;;;;;;3052797;19;4815;-23
2023/07/27 16:15:46;;;;;;;;;;;25.10;57.70;;;;;;3053677;19;4621;-24
2023/07/27 16:16:47;;;;;;;;;;;25.00;58.10;;;;;;3055023;19;4798;-24
2023/07/27 16:17:48;;;;;;;;;;;25.00;58.20;;;;;;3055052;19;4815;-22
2023/07/27 16:18:49;;;;;;;;;;;25.00;58.10;;;;;;3053432;19;4748;-25
2023/07/27 16:19:50;;;;;;;;;;;25.00;58.60;;;;;;3053563;19;5004;-22
2023/07/27 16:20:51;;;;;;;;;;;25.00;58.10;;;;;;3053600;19;4754;-27
2023/07/27 16:21:51;;;;;;;;;;;25.00;57.80;;;;;;3054181;19;4845;-24
2023/07/27 16:22:52;;;;;;;;;;;25.00;57.90;;;;;;3055334;19;4792;-22
2023/07/27 16:23:53;;;;;;;;;;;25.00;58.10;;;;;;3053932;19;4634;-23
2023/07/27 16:24:53;;;;;;;;;;;25.00;57.90;;;;;;3054340;19;4757;-23
2023/07/27 16:26:05;;;;;;;;;;;25.00;58.20;;;;;;3051533;19;4752;-28
2023/07/27 16:27:06;;;;;;;;;;;25.00;58.20;;;;;;3053972;19;4711;-23
2023/07/27 16:28:06;;;;;;;;;;;25.00;57.90;;;;;;3053504;19;4744;-24
2023/07/27 16:29:07;;;;;;;;;;;25.10;58.00;;;;;;3053017;19;4485;-24
2023/07/27 16:30:08;;;;;;;;;;;25.10;57.80;;;;;;3054303;19;4750;-24
2023/07/27 16:31:09;;;;;;;;;;;25.20;58.80;;;;;;3053950;19;4114;-25
2023/07/27 16:32:10;;;;;;;;;;;25.20;57.80;;;;;;3053160;19;4771;-22
2023/07/27 16:33:11;;;;;;;;;;;25.20;57.80;;;;;;3053167;19;4859;-22
2023/07/27 16:34:11;;;;;;;;;;;25.20;57.80;;;;;;3054412;19;4650;-23
2023/07/27 16:35:12;;;;;;;;;;;25.20;57.70;;;;;;3055110;19;4792;-23
2023/07/27 16:36:14;;;;;;;;;;;25.20;57.50;;;;;;3053735;19;4800;-22
2023/07/27 16:37:14;;;;;;;;;;;25.20;57.80;;;;;;3054583;19;4639;-25
2023/07/27 16:38:15;;;;;;;;;;;25.20;58.50;;;;;;3052066;19;4787;-26
2023/07/27 16:39:16;;;;;;;;;;;25.20;58.00;;;;;;3053565;19;4529;-23
2023/07/27 16:40:16;;;;;;;;;;;25.20;57.60;;;;;;3053105;19;4824;-23
2023/07/27 16:41:17;;;;;;;;;;;25.20;57.80;;;;;;3054497;19;4826;-25
2023/07/27 16:42:18;;;;;;;;;;;25.20;57.70;;;;;;3054538;19;4771;-22
2023/07/27 16:43:18;;;;;;;;;;;25.20;57.60;;;;;;3053879;19;4661;-23
2023/07/27 16:44:19;;;;;;;;;;;25.20;58.60;;;;;;3053795;19;4709;-24
2023/07/27 16:45:20;;;;;;;;;;;25.20;57.80;;;;;;3054268;19;4731;-24
2023/07/27 16:46:20;;;;;;;;;;;25.20;57.70;;;;;;3054038;19;5004;-24
2023/07/27 16:47:21;;;;;;;;;;;25.20;58.40;;;;;;3053122;19;4634;-25
2023/07/27 16:48:22;;;;;;;;;;;25.20;57.40;;;;;;3054074;19;4824;-22
2023/07/27 16:49:22;;;;;;;;;;;25.20;58.00;;;;;;3053873;19;4726;-24
2023/07/27 16:50:23;;;;;;;;;;;25.20;57.80;;;;;;3054499;19;4644;-22
2023/07/27 16:51:24;;;;;;;;;;;25.20;57.60;;;;;;3052320;19;4756;-24
2023/07/27 16:52:24;;;;;;;;;;;25.20;58.00;;;;;;3053305;19;4935;-22
2023/07/27 16:53:25;;;;;;;;;;;25.20;57.70;;;;;;3054652;19;4708;-23
2023/07/27 16:54:26;;;;;;;;;;;25.20;57.80;;;;;;3053849;19;4786;-24
2023/07/27 16:55:31;;;;;;;;;;;25.20;57.40;;;;;;3052438;19;4970;-22
2023/07/27 16:56:32;;;;;;;;;;;25.20;57.40;;;;;;3051024;19;4649;-25
2023/07/27 16:57:32;;;;;;;;;;;25.20;57.80;;;;;;3052132;19;4812;-25
2023/07/27 16:58:33;;;;;;;;;;;25.20;57.80;;;;;;3054366;19;4665;-26
2023/07/27 16:59:34;;;;;;;;;;;25.20;58.40;;;;;;3052763;19;4655;-24
2023/07/27 17:00:35;;;;;;;;;;;25.20;57.50;;;;;;3053793;19;4903;-25
2023/07/27 17:01:35;;;;;;;;;;;25.20;57.70;;;;;;3053722;19;4684;-23
2023/07/27 17:02:37;;;;;;;;;;;25.20;58.30;;;;;;3053809;19;4806;-23
2023/07/27 17:03:37;;;;;;;;;;;25.20;57.90;;;;;;3054184;19;4845;-25
2023/07/27 17:04:38;;;;;;;;;;;25.20;57.60;;;;;;3054398;19;4932;-23
2023/07/27 17:05:39;;;;;;;;;;;25.20;58.10;;;;;;3053198;19;4828;-28
2023/07/27 17:06:40;;;;;;;;;;;25.20;57.60;;;;;;3052613;19;4632;-22
2023/07/27 17:07:41;;;;;;;;;;;25.20;57.80;;;;;;3054828;19;4656;-25
2023/07/27 17:08:44;;;;;;;;;;;25.20;57.80;;;;;;3054261;19;4829;-24
2023/07/27 17:09:45;;;;;;;;;;;25.20;57.70;;;;;;3054292;19;4813;-24
2023/07/27 17:10:46;;;;;;;;;;;25.20;58.10;;;;;;3054531;19;4657;-26
2023/07/27 17:11:46;;;;;;;;;;;25.20;57.80;;;;;;3052608;19;4692;-22
2023/07/27 17:12:47;;;;;;;;;;;25.20;57.70;;;;;;3052274;19;4943;-24
2023/07/27 17:13:48;;;;;;;;;;;25.20;57.80;;;;;;3054510;19;4795;-24
2023/07/27 17:14:48;;;;;;;;;;;25.20;58.00;;;;;;3053271;19;10560;-25
2023/07/27 17:15:58;;;;;;;;;;;25.20;58.30;;;;;;3051132;19;4776;-31
2023/07/27 17:16:59;;;;;;;;;;;25.20;58.60;;;;;;3049393;19;4597;-31
2023/07/27 17:17:59;;;;;;;;;;;25.20;58.30;;;;;;3053793;19;5023;-34
2023/07/27 17:19:00;;;;;;;;;;;25.20;58.30;;;;;;3052887;19;4763;-29
2023/07/27 17:20:01;;;;;;;;;;;25.20;58.10;;;;;;3052941;19;4804;-33
2023/07/27 17:21:02;;;;;;;;;;;25.20;58.70;;;;;;3053565;19;5200;-34
2023/07/27 17:22:04;;;;;;;;;;;25.10;58.20;;;;;;3054940;19;4614;-31
2023/07/27 17:23:05;;;;;;;;;;;25.10;58.00;;;;;;3054209;19;4629;-34
2023/07/27 17:24:05;;;;;;;;;;;25.10;58.30;;;;;;3053016;19;4552;-31
2023/07/27 17:25:06;;;;;;;;;;;25.10;59.20;;;;;;3053786;19;4603;-32
2023/07/27 17:26:07;;;;;;;;;;;25.10;58.10;;;;;;3053705;19;4801;-33
2023/07/27 17:27:07;;;;;;;;;;;25.10;58.30;;;;;;3054261;19;4844;-33
2023/07/27 17:28:08;;;;;;;;;;;25.10;58.30;;;;;;3053592;19;4722;-31
2023/07/27 17:29:09;;;;;;;;;;;25.10;58.10;;;;;;3051416;19;4773;-29
2023/07/27 17:30:11;;;;;;;;;;;25.10;57.90;;;;;;3052336;19;4183;-35
2023/07/27 17:31:13;;;;;;;;;;;25.10;58.20;;;;;;3051780;19;4754;-30
2023/07/27 17:32:14;;;;;;;;;;;25.10;58.30;;;;;;3053735;19;4779;-30
2023/07/27 17:33:15;;;;;;;;;;;25.10;58.50;;;;;;3054443;19;4886;-30
2023/07/27 17:34:15;;;;;;;;;;;25.10;58.50;;;;;;3055061;19;4692;-33
2023/07/27 17:35:16;;;;;;;;;;;25.10;58.50;;;;;;3054208;19;4649;-30
2023/07/27 17:36:17;;;;;;;;;;;25.10;58.00;;;;;;3054760;19;4653;-32
2023/07/27 17:37:18;;;;;;;;;;;25.10;58.30;;;;;;3053109;19;4617;-34
2023/07/27 17:38:22;;;;;;;;;;;25.10;58.30;;;;;;3052480;19;4553;-28
2023/07/27 17:39:24;;;;;;;;;;;25.10;58.30;;;;;;3051240;19;4899;-30
2023/07/27 17:40:24;;;;;;;;;;;25.10;58.90;;;;;;3050508;19;4780;-32
2023/07/27 17:41:25;;;;;;;;;;;25.00;58.30;;;;;;3049586;19;4659;-34
2023/07/27 17:42:26;;;;;;;;;;;25.00;58.00;;;;;;3051366;19;4840;-34
2023/07/27 17:43:26;;;;;;;;;;;25.00;58.30;;;;;;3052636;19;4924;-29
2023/07/27 17:44:27;;;;;;;;;;;25.00;58.30;;;;;;3052000;19;4939;-33
2023/07/27 17:45:28;;;;;;;;;;;25.00;58.60;;;;;;3053385;19;5004;-35
2023/07/27 17:46:29;;;;;;;;;;;25.00;58.60;;;;;;3052821;19;4721;-31